Terminal Aerodrome Forecast
Issued by NWS

Home | Current Version | Previous Version | Text Only | Print | Product List | Glossary On
Versions: 1 2 3 4 5 6 7 8 9 10 11 12 13 14 15
000
FTUS42 KTAE 300520
TAFABY
TAF
KABY 300520Z 3006/3106 00000KT 6SM BR SCT110
     FM301300 32005KT P6SM SCT040
     FM301900 20010KT P6SM VCTS SCT050CB
      TEMPO 3022/3102 VRB15G25KT 2SM +TSRA BKN040CB
     FM310400 VRB03KT P6SM SCT030 OVC250=

USA.gov is the U.S. government's official web portal to all federal, state and local government web resources and services.